createdAt,value
2022-12-17T00:02:29.225Z,98814.75
2022-12-17T00:05:15.037Z,98830.09
2022-12-17T00:08:00.452Z,98832.47
2022-12-17T00:10:45.751Z,98840.38
2022-12-17T00:13:40.605Z,98849.22
2022-12-17T00:16:29.927Z,98852.81
2022-12-17T00:19:15.640Z,98853.28
2022-12-17T00:22:02.233Z,98851.53
2022-12-17T00:24:47.736Z,98848.50
2022-12-17T00:27:33.152Z,98819.72
2022-12-17T00:30:18.764Z,98860.06
2022-12-17T00:33:05.584Z,98863.75
2022-12-17T00:35:51.151Z,98865.19
2022-12-17T00:38:36.881Z,98869.00
2022-12-17T00:41:23.101Z,98874.16
2022-12-17T00:44:08.734Z,98874.50
2022-12-17T00:46:54.873Z,98876.19
2022-12-17T00:49:42.671Z,98877.53
2022-12-17T00:52:28.198Z,98876.19
2022-12-17T00:55:13.892Z,98886.94
2022-12-17T00:57:59.689Z,98884.88
2022-12-17T01:00:45.331Z,98897.81
2022-12-17T01:03:31.269Z,98892.19
2022-12-17T01:06:21.568Z,98906.50
2022-12-17T01:09:07.331Z,98904.34
2022-12-17T01:11:56.638Z,98903.84
2022-12-17T01:14:42.802Z,98901.50
2022-12-17T01:17:28.243Z,98903.88
2022-12-17T01:20:14.084Z,98906.09
2022-12-17T01:23:01.276Z,98904.13
2022-12-17T01:25:46.940Z,98910.88
2022-12-17T01:28:32.737Z,98909.88
2022-12-17T01:31:18.553Z,98912.31
2022-12-17T01:34:05.230Z,98908.63
2022-12-17T01:36:50.759Z,98907.78
2022-12-17T01:39:46.818Z,98915.13
2022-12-17T01:42:34.637Z,98925.16
2022-12-17T01:45:20.908Z,98932.03
2022-12-17T01:48:08.634Z,98937.19
2022-12-17T01:50:56.823Z,98938.94
2022-12-17T01:53:44.428Z,98939.06
2022-12-17T01:56:34.237Z,98941.19
2022-12-17T01:59:21.389Z,98938.63
2022-12-17T02:02:03.446Z,98945.44
2022-12-17T02:04:50.073Z,98947.66
2022-12-17T02:07:43.359Z,98953.56
2022-12-17T02:10:34.972Z,98944.91
2022-12-17T02:13:40.657Z,98945.81
2022-12-17T02:16:32.771Z,98950.94
2022-12-17T02:19:23.327Z,98963.09
2022-12-17T02:22:12.404Z,98960.25
2022-12-17T02:25:05.967Z,98958.50
2022-12-17T02:27:56.217Z,98958.88
2022-12-17T02:30:43.019Z,98956.13
2022-12-17T02:33:29.089Z,98962.56
2022-12-17T02:36:20.160Z,98959.13
2022-12-17T02:39:08.448Z,98969.81
2022-12-17T02:42:03.363Z,98973.91
2022-12-17T02:44:53.182Z,98976.94
2022-12-17T02:47:39.521Z,98948.63
2022-12-17T02:50:26.636Z,98981.00
2022-12-17T02:53:12.918Z,98988.44
2022-12-17T02:55:58.841Z,99000.41
2022-12-17T02:58:45.592Z,98995.78
2022-12-17T03:01:35.224Z,98988.44
2022-12-17T03:04:22.882Z,98996.63
2022-12-17T03:07:08.886Z,98995.91
2022-12-17T03:09:59.813Z,99000.75
2022-12-17T03:12:51.087Z,98995.59
2022-12-17T03:15:33.031Z,99002.84
2022-12-17T03:18:20.049Z,99000.41
2022-12-17T03:21:10.766Z,99004.06
2022-12-17T03:23:56.440Z,99010.59
2022-12-17T03:26:44.282Z,99020.91
2022-12-17T03:29:29.751Z,99019.53
2022-12-17T03:32:15.347Z,99017.66
2022-12-17T03:35:02.344Z,99019.03
2022-12-17T03:37:48.001Z,99025.13
2022-12-17T03:40:34.073Z,99028.88
2022-12-17T03:43:23.797Z,99031.31
2022-12-17T03:46:12.639Z,99036.88
2022-12-17T03:48:58.346Z,99041.91
2022-12-17T03:51:45.246Z,99041.47
2022-12-17T03:54:30.550Z,99044.59
2022-12-17T03:57:16.617Z,99043.38
2022-12-17T04:00:04.492Z,99045.03
2022-12-17T04:03:09.040Z,99044.69
2022-12-17T04:05:54.760Z,99042.22
2022-12-17T04:08:41.461Z,99048.28
2022-12-17T04:11:27.171Z,99047.94
2022-12-17T04:14:12.939Z,99053.22
2022-12-17T04:16:58.760Z,99050.03
2022-12-17T04:19:44.390Z,99054.50
2022-12-17T04:22:32.218Z,99068.31
2022-12-17T04:25:19.258Z,99064.91
2022-12-17T04:28:04.925Z,99071.09
2022-12-17T04:30:50.533Z,99075.00
2022-12-17T04:33:36.526Z,99074.50
2022-12-17T04:36:22.357Z,99079.91
2022-12-17T04:39:15.590Z,99083.28
2022-12-17T04:42:02.334Z,99080.53
2022-12-17T04:44:47.700Z,99090.34
2022-12-17T04:47:33.168Z,99077.38
2022-12-17T04:50:29.983Z,99081.22
2022-12-17T04:53:18.403Z,99083.34
2022-12-17T04:56:06.651Z,99090.91
2022-12-17T04:58:56.251Z,99091.41
2022-12-17T05:01:41.805Z,99085.47
2022-12-17T05:04:27.472Z,99095.06
2022-12-17T05:07:12.925Z,99093.25
2022-12-17T05:09:58.611Z,99101.41
2022-12-17T05:12:44.239Z,99104.00
2022-12-17T05:15:31.186Z,99114.97
2022-12-17T05:18:23.089Z,99119.31
2022-12-17T05:21:10.925Z,99121.56
2022-12-17T05:23:56.803Z,99118.03
2022-12-17T05:26:43.909Z,99131.34
2022-12-17T05:29:30.007Z,99130.25
2022-12-17T05:32:17.198Z,99137.88
2022-12-17T05:35:02.745Z,99145.16
2022-12-17T05:37:48.060Z,99141.84
2022-12-17T05:40:34.245Z,99145.88
2022-12-17T05:43:23.343Z,99144.56
2022-12-17T05:46:09.064Z,99147.97
2022-12-17T05:48:56.204Z,99158.72
2022-12-17T05:51:41.895Z,99160.31
2022-12-17T05:54:29.493Z,99167.63
2022-12-17T05:57:15.171Z,99165.25
2022-12-17T06:00:00.747Z,99163.88
2022-12-17T06:02:46.199Z,99175.16
2022-12-17T06:05:33.343Z,99180.41
2022-12-17T06:08:23.226Z,99175.66
2022-12-17T06:11:08.564Z,99182.09
2022-12-17T06:13:54.161Z,99182.69
2022-12-17T06:16:39.844Z,99182.72
2022-12-17T06:19:25.351Z,99177.78
2022-12-17T06:22:12.519Z,99187.13
2022-12-17T06:24:57.845Z,99179.75
2022-12-17T06:27:43.588Z,99191.44
2022-12-17T06:30:38.396Z,99194.91
2022-12-17T06:33:24.556Z,99200.34
2022-12-17T06:36:10.668Z,99216.06
2022-12-17T06:38:56.787Z,99215.56
2022-12-17T06:41:42.367Z,99218.31
2022-12-17T06:44:30.505Z,99229.91
2022-12-17T06:47:16.106Z,99232.94
2022-12-17T06:50:16.790Z,99236.25
2022-12-17T06:53:02.225Z,99233.69
2022-12-17T06:55:48.958Z,99236.84
2022-12-17T06:58:34.294Z,99232.44
2022-12-17T07:01:19.849Z,99243.69
2022-12-17T07:04:07.402Z,99247.78
2022-12-17T07:06:55.938Z,99253.28
2022-12-17T07:09:41.633Z,99262.44
2022-12-17T07:12:30.898Z,99262.69
2022-12-17T07:15:21.816Z,99266.44
2022-12-17T07:18:12.797Z,99274.13
2022-12-17T07:21:12.002Z,99276.59
2022-12-17T07:23:57.577Z,99280.03
2022-12-17T07:26:45.800Z,99281.19
2022-12-17T07:29:32.505Z,99287.91
2022-12-17T07:32:18.075Z,99272.13
2022-12-17T07:35:03.817Z,99293.84
2022-12-17T07:37:49.348Z,99288.47
2022-12-17T07:40:34.996Z,99291.19
2022-12-17T07:43:20.470Z,99303.19
2022-12-17T07:46:03.846Z,99315.88
2022-12-17T07:48:49.290Z,99320.69
2022-12-17T07:51:35.047Z,99317.69
2022-12-17T07:54:32.083Z,99318.84
2022-12-17T07:57:17.835Z,99325.59
2022-12-17T08:00:05.906Z,99319.28
2022-12-17T08:02:53.033Z,99323.00
2022-12-17T08:05:38.774Z,99326.38
2022-12-17T08:08:27.257Z,99328.28
2022-12-17T08:11:12.855Z,99330.78
2022-12-17T08:13:58.337Z,99335.72
2022-12-17T08:16:44.089Z,99335.94
2022-12-17T08:19:31.138Z,99344.84
2022-12-17T08:22:16.664Z,99349.53
2022-12-17T08:25:02.069Z,99353.00
2022-12-17T08:27:47.872Z,99354.97
2022-12-17T08:30:35.930Z,99354.16
2022-12-17T08:33:22.130Z,99353.22
2022-12-17T08:36:12.023Z,99362.38
2022-12-17T08:38:57.748Z,99363.13
2022-12-17T08:41:43.240Z,99371.84
2022-12-17T08:44:31.687Z,99366.50
2022-12-17T08:47:17.239Z,99370.09
2022-12-17T08:50:02.899Z,99368.16
2022-12-17T08:52:49.985Z,99365.22
2022-12-17T08:55:35.737Z,99366.78
2022-12-17T08:58:21.350Z,99365.84
2022-12-17T09:01:09.241Z,99369.22
2022-12-17T09:03:54.871Z,99366.81
2022-12-17T09:06:40.435Z,99343.41
2022-12-17T09:09:27.215Z,99371.13
2022-12-17T09:12:12.731Z,99379.63
2022-12-17T09:15:00.411Z,99367.56
2022-12-17T09:17:54.149Z,99372.78
2022-12-17T09:20:54.256Z,99371.25
2022-12-17T09:23:42.266Z,99371.31
2022-12-17T09:26:28.922Z,99372.47
2022-12-17T09:29:14.967Z,99371.81
2022-12-17T09:32:00.727Z,99369.72
2022-12-17T09:34:46.145Z,99379.91
2022-12-17T09:37:31.712Z,99370.78
2022-12-17T09:40:17.061Z,99373.56
2022-12-17T09:43:07.938Z,99378.16
2022-12-17T09:45:56.068Z,99383.59
2022-12-17T09:48:44.332Z,99382.81
2022-12-17T09:51:38.102Z,99389.50
2022-12-17T09:54:25.397Z,99381.00
2022-12-17T09:57:10.964Z,99376.16
2022-12-17T09:59:58.208Z,99369.25
2022-12-17T10:02:45.199Z,99377.41
2022-12-17T10:05:32.961Z,99383.66
2022-12-17T10:08:18.123Z,99376.31
2022-12-17T10:11:01.234Z,99375.25
2022-12-17T10:13:46.854Z,99383.56
2022-12-17T10:16:38.722Z,99380.75
2022-12-17T10:19:24.961Z,99348.88
2022-12-17T10:22:10.641Z,99384.13
2022-12-17T10:25:02.446Z,99384.94
2022-12-17T10:27:48.177Z,99383.25
2022-12-17T10:30:34.880Z,99373.53
2022-12-17T10:33:25.206Z,99379.34
2022-12-17T10:36:10.952Z,99364.16
2022-12-17T10:38:56.631Z,99377.78
2022-12-17T10:41:45.821Z,99375.13
2022-12-17T10:44:41.564Z,99379.00
2022-12-17T10:47:29.750Z,99349.91
2022-12-17T10:50:16.954Z,99372.94
2022-12-17T10:53:03.768Z,99368.47
2022-12-17T10:55:50.110Z,99368.09
2022-12-17T10:58:39.683Z,99367.44
2022-12-17T11:01:25.993Z,99373.50
2022-12-17T11:04:12.319Z,99381.75
2022-12-17T11:07:00.265Z,99380.59
2022-12-17T11:09:50.777Z,99384.38
2022-12-17T11:12:38.421Z,99397.22
2022-12-17T11:15:33.697Z,99390.41
2022-12-17T11:18:20.172Z,99396.78
2022-12-17T11:21:09.069Z,99393.06
2022-12-17T11:23:58.609Z,99391.31
2022-12-17T11:26:45.189Z,99387.75
2022-12-17T11:29:31.085Z,99394.19
2022-12-17T11:32:24.173Z,99398.25
2022-12-17T11:35:25.505Z,99395.09
2022-12-17T11:38:22.516Z,99372.28
2022-12-17T11:41:14.143Z,99363.50
2022-12-17T11:44:08.198Z,99383.22
2022-12-17T11:47:02.855Z,99385.06
2022-12-17T11:50:00.594Z,99380.28
2022-12-17T11:52:52.930Z,99376.38
2022-12-17T11:55:41.505Z,99376.28
2022-12-17T11:58:33.723Z,99383.22
2022-12-17T12:01:25.006Z,99386.16
2022-12-17T12:04:16.143Z,99392.34
2022-12-17T12:07:07.386Z,99390.81
2022-12-17T12:09:58.421Z,99387.66
2022-12-17T12:12:52.883Z,99382.72
2022-12-17T12:15:43.907Z,99387.75
2022-12-17T12:18:37.020Z,99387.31
2022-12-17T12:21:42.957Z,99391.88
2022-12-17T12:24:36.283Z,99393.66
2022-12-17T12:27:27.916Z,99395.28
2022-12-17T12:30:17.847Z,99400.41
2022-12-17T12:33:15.206Z,99399.88
2022-12-17T12:36:01.108Z,99383.75
2022-12-17T12:38:49.565Z,99397.00
2022-12-17T12:41:38.680Z,99402.16
2022-12-17T12:44:32.387Z,99394.63
2022-12-17T12:47:19.571Z,99400.97
2022-12-17T12:50:13.139Z,99401.56
2022-12-17T12:52:59.689Z,99397.94
2022-12-17T12:55:55.076Z,99407.78
2022-12-17T12:58:44.894Z,99401.56
2022-12-17T13:01:30.824Z,99407.31
2022-12-17T13:04:17.791Z,99403.06
2022-12-17T13:06:48.952Z,99400.50
2022-12-17T13:09:34.458Z,99404.16
2022-12-17T13:12:33.040Z,99406.66
2022-12-17T13:15:14.774Z,99393.69
2022-12-17T13:17:46.015Z,99382.06
2022-12-17T13:20:25.876Z,99376.91
2022-12-17T13:23:06.638Z,99378.00
2022-12-17T13:25:34.900Z,99381.38
2022-12-17T13:28:02.959Z,99384.53
2022-12-17T13:30:33.040Z,99386.25
2022-12-17T13:33:08.007Z,99387.22
2022-12-17T13:35:40.977Z,99391.88
2022-12-17T13:38:15.670Z,99393.91
2022-12-17T13:40:45.218Z,99390.25
2022-12-17T13:43:20.410Z,99391.56
2022-12-17T13:45:48.667Z,99386.97
2022-12-17T13:48:21.600Z,99387.13
2022-12-17T13:50:56.242Z,99393.88
2022-12-17T13:53:25.736Z,99401.19
2022-12-17T13:55:55.358Z,99395.44
2022-12-17T13:58:24.596Z,99405.97
2022-12-17T14:00:52.928Z,99406.59
2022-12-17T14:03:43.160Z,99412.38
2022-12-17T14:06:12.737Z,99411.03
2022-12-17T14:08:42.692Z,99411.69
2022-12-17T14:11:30.253Z,99419.59
2022-12-17T14:13:58.747Z,99424.75
2022-12-17T14:16:26.940Z,99434.66
2022-12-17T14:18:56.994Z,99437.28
2022-12-17T14:21:26.193Z,99431.19
2022-12-17T14:23:56.246Z,99431.28
2022-12-17T14:26:26.297Z,99428.66
2022-12-17T14:28:55.684Z,99435.25
2022-12-17T14:31:27.231Z,99436.00
2022-12-17T14:34:07.229Z,99410.06
2022-12-17T14:36:36.694Z,99443.38
2022-12-17T14:39:11.384Z,99424.53
2022-12-17T14:41:57.894Z,99428.41
2022-12-17T14:44:27.444Z,99438.91
2022-12-17T14:47:12.731Z,99415.34
2022-12-17T14:49:55.121Z,99437.34
2022-12-17T14:52:25.895Z,99440.00
2022-12-17T14:54:55.412Z,99414.53
2022-12-17T14:57:24.076Z,99442.34
2022-12-17T14:59:53.097Z,99434.66
2022-12-17T15:02:24.024Z,99437.75
2022-12-17T15:04:57.376Z,99434.75
2022-12-17T15:07:26.577Z,99444.97
2022-12-17T15:09:56.504Z,99443.34
2022-12-17T15:12:25.646Z,99443.44
2022-12-17T15:14:53.700Z,99441.19
2022-12-17T15:17:21.931Z,99450.41
2022-12-17T15:19:55.748Z,99450.59
2022-12-17T15:22:24.286Z,99455.19
2022-12-17T15:24:52.380Z,99455.47
2022-12-17T15:27:21.849Z,99457.75
2022-12-17T15:29:49.913Z,99463.38
2022-12-17T15:32:19.666Z,99461.88
2022-12-17T15:34:47.983Z,99428.19
2022-12-17T15:37:18.810Z,99464.50
2022-12-17T15:39:51.123Z,99470.28
2022-12-17T15:42:36.603Z,99473.66
2022-12-17T15:45:06.673Z,99479.03
2022-12-17T15:47:34.862Z,99470.41
2022-12-17T15:50:05.708Z,99472.19
2022-12-17T15:52:33.773Z,99476.69
2022-12-17T15:55:01.812Z,99469.84
2022-12-17T15:57:30.077Z,99475.59
2022-12-17T15:59:58.235Z,99471.84
2022-12-17T16:02:27.889Z,99475.72
2022-12-17T16:04:56.055Z,99478.19
2022-12-17T16:07:24.142Z,99482.78
2022-12-17T16:09:52.174Z,99487.22
2022-12-17T16:12:20.228Z,99486.19
2022-12-17T16:14:48.421Z,99483.75
2022-12-17T16:17:16.618Z,99479.69
2022-12-17T16:19:46.061Z,99489.84
2022-12-17T16:22:14.275Z,99490.03
2022-12-17T16:24:42.283Z,99490.38
2022-12-17T16:27:10.391Z,99489.94
2022-12-17T16:29:38.446Z,99481.84
2022-12-17T16:32:06.937Z,99483.84
2022-12-17T16:34:34.998Z,99477.97
2022-12-17T16:37:06.348Z,99480.38
2022-12-17T16:39:34.455Z,99479.88
2022-12-17T16:42:02.597Z,99473.22
2022-12-17T16:44:30.631Z,99471.81
2022-12-17T16:46:59.876Z,99471.38
2022-12-17T16:49:28.043Z,99478.31
2022-12-17T16:51:57.738Z,99448.56
2022-12-17T16:54:30.204Z,99479.72
2022-12-17T16:56:58.338Z,99481.22
2022-12-17T16:59:26.326Z,99483.28
2022-12-17T17:01:54.501Z,99492.75
2022-12-17T17:04:23.458Z,99487.75
2022-12-17T17:06:52.276Z,99494.53
2022-12-17T17:09:20.977Z,99491.31
2022-12-17T17:11:52.037Z,99503.53
2022-12-17T17:14:20.683Z,99506.16
2022-12-17T17:16:48.853Z,99509.81
2022-12-17T17:19:16.898Z,99513.63
2022-12-17T17:21:50.527Z,99521.06
2022-12-17T17:24:21.968Z,99516.66
2022-12-17T17:26:52.355Z,99509.63
2022-12-17T17:29:20.659Z,99518.00
2022-12-17T17:34:36.823Z,99523.53
2022-12-17T17:37:04.921Z,99526.47
2022-12-17T17:39:34.120Z,99521.56
2022-12-17T17:42:03.597Z,99524.59
2022-12-17T17:44:31.735Z,99525.97
2022-12-17T17:47:02.437Z,99530.69
2022-12-17T17:49:30.712Z,99535.72
2022-12-17T17:52:14.115Z,99537.47
2022-12-17T17:54:42.400Z,99535.94
2022-12-17T17:57:12.061Z,99530.97
2022-12-17T17:59:40.421Z,99539.94
2022-12-17T18:02:10.711Z,99541.84
2022-12-17T18:04:39.835Z,99537.25
2022-12-17T18:09:56.305Z,99532.28
2022-12-17T18:12:43.271Z,99536.22
2022-12-17T18:15:14.835Z,99535.69
2022-12-17T18:17:43.984Z,99545.25
2022-12-17T18:20:12.970Z,99537.81
2022-12-17T18:22:41.373Z,99538.94
2022-12-17T18:25:10.360Z,99545.44
2022-12-17T18:27:39.849Z,99544.25
2022-12-17T18:30:08.406Z,99547.13
2022-12-17T18:32:36.419Z,99543.63
2022-12-17T18:35:07.001Z,99540.84
2022-12-17T18:37:35.074Z,99545.16
2022-12-17T18:40:03.241Z,99548.03
2022-12-17T18:42:50.265Z,99553.78
2022-12-17T18:45:19.646Z,99556.47
2022-12-17T18:47:47.863Z,99561.72
2022-12-17T18:50:15.969Z,99565.16
2022-12-17T18:52:44.086Z,99572.59
2022-12-17T18:55:12.354Z,99567.59
2022-12-17T18:57:40.332Z,99571.13
2022-12-17T19:00:09.090Z,99562.09
2022-12-17T19:02:39.434Z,99566.50
2022-12-17T19:05:07.855Z,99571.06
2022-12-17T19:07:35.848Z,99560.34
2022-12-17T19:10:06.666Z,99561.31
2022-12-17T19:12:34.669Z,99533.81
2022-12-17T19:15:02.796Z,99567.22
2022-12-17T19:17:31.015Z,99573.84
2022-12-17T19:20:00.395Z,99573.56
2022-12-17T19:22:30.848Z,99551.44
2022-12-17T19:24:58.926Z,99579.66
2022-12-17T19:27:28.803Z,99581.69
2022-12-17T19:29:57.141Z,99595.03
2022-12-17T19:32:25.793Z,99596.78
2022-12-17T19:34:53.902Z,99597.88
2022-12-17T19:37:23.291Z,99604.25
2022-12-17T19:39:51.327Z,99596.41
2022-12-17T19:42:25.447Z,99599.97
2022-12-17T19:44:56.670Z,99603.50
2022-12-17T19:47:25.045Z,99601.34
2022-12-17T19:49:53.137Z,99597.88
2022-12-17T19:52:21.608Z,99585.50
2022-12-17T19:54:51.157Z,99578.94
2022-12-17T19:57:19.737Z,99577.72
2022-12-17T19:59:47.891Z,99577.31
2022-12-17T20:02:19.834Z,99580.50
2022-12-17T20:04:48.428Z,99586.25
2022-12-17T20:07:16.516Z,99590.75
2022-12-17T20:09:45.157Z,99583.78
2022-12-17T20:12:14.568Z,99594.03
2022-12-17T20:14:42.744Z,99586.91
2022-12-17T20:17:10.877Z,99584.50
2022-12-17T20:19:39.009Z,99588.56
2022-12-17T20:22:07.962Z,99596.97
2022-12-17T20:24:37.278Z,99591.22
2022-12-17T20:27:05.829Z,99581.84
2022-12-17T20:29:35.761Z,99581.00
2022-12-17T20:32:04.223Z,99572.63
2022-12-17T20:34:34.687Z,99570.38
2022-12-17T20:37:02.701Z,99562.66
2022-12-17T20:39:32.130Z,99558.63
2022-12-17T20:42:00.173Z,99557.09
2022-12-17T20:44:28.833Z,99560.88
2022-12-17T20:46:58.258Z,99566.47
2022-12-17T20:49:26.336Z,99575.00
2022-12-17T20:51:54.464Z,99586.66
2022-12-17T20:54:24.923Z,99587.56
2022-12-17T20:56:53.203Z,99577.03
2022-12-17T20:59:21.280Z,99574.78
2022-12-17T21:01:54.459Z,99574.50
2022-12-17T21:04:25.176Z,99574.00
2022-12-17T21:06:53.233Z,99581.75
2022-12-17T21:09:22.497Z,99594.25
2022-12-17T21:11:50.723Z,99589.31
2022-12-17T21:14:19.340Z,99564.13
2022-12-17T21:16:47.619Z,99577.34
2022-12-17T21:19:22.099Z,99578.34
2022-12-17T21:21:52.052Z,99577.75
2022-12-17T21:24:20.086Z,99569.88
2022-12-17T21:26:48.131Z,99577.84
2022-12-17T21:29:17.027Z,99578.72
2022-12-17T21:31:45.859Z,99580.63
2022-12-17T21:34:15.066Z,99588.94
2022-12-17T21:36:43.383Z,99588.19
2022-12-17T21:39:15.287Z,99593.44
2022-12-17T21:42:04.956Z,99591.97
2022-12-17T21:44:33.029Z,99589.81
2022-12-17T21:47:02.121Z,99598.69
2022-12-17T21:49:30.359Z,99604.81
2022-12-17T21:52:00.013Z,99609.22
2022-12-17T21:54:31.587Z,99610.47
2022-12-17T21:57:02.183Z,99617.34
2022-12-17T22:02:38.807Z,99601.91
2022-12-17T22:05:07.305Z,99597.75
2022-12-17T22:07:36.090Z,99601.72
2022-12-17T22:10:34.187Z,99612.81
2022-12-17T22:13:16.620Z,99610.81
2022-12-17T22:15:44.898Z,99612.69
2022-12-17T22:18:17.483Z,99612.03
2022-12-17T22:20:45.693Z,99608.22
2022-12-17T22:23:13.724Z,99616.06
2022-12-17T22:25:42.151Z,99621.81
2022-12-17T22:28:11.637Z,99630.13
2022-12-17T22:30:57.553Z,99617.06
2022-12-17T22:34:01.809Z,99617.09
2022-12-17T22:39:58.093Z,99610.81
2022-12-17T22:41:59.597Z,99606.56
2022-12-17T22:44:48.866Z,99606.88
2022-12-17T22:45:09.159Z,99617.44
2022-12-17T22:47:39.016Z,99609.38
2022-12-17T22:50:08.990Z,99600.72
2022-12-17T22:52:37.874Z,99602.19
2022-12-17T22:55:06.843Z,99601.34
2022-12-17T22:57:38.251Z,99608.94
2022-12-17T23:00:10.170Z,99616.25
2022-12-17T23:02:38.340Z,99605.78
2022-12-17T23:05:08.219Z,99614.03
2022-12-17T23:07:36.395Z,99608.06
2022-12-17T23:10:05.313Z,99611.34
2022-12-17T23:12:52.389Z,99625.22
2022-12-17T23:15:22.216Z,99623.16
2022-12-17T23:17:51.314Z,99624.78
2022-12-17T23:20:21.254Z,99628.66
2022-12-17T23:22:51.807Z,99626.66
2022-12-17T23:25:19.977Z,99635.09
2022-12-17T23:27:48.156Z,99625.72
2022-12-17T23:30:17.385Z,99632.84
2022-12-17T23:32:45.649Z,99633.13
2022-12-17T23:35:14.015Z,99627.41
2022-12-17T23:37:43.807Z,99622.50
2022-12-17T23:40:13.172Z,99611.69
2022-12-17T23:42:41.281Z,99609.56
2022-12-17T23:45:11.392Z,99615.84
2022-12-17T23:47:40.049Z,99606.66
2022-12-17T23:50:09.507Z,99602.59
2022-12-17T23:52:38.046Z,99607.25
2022-12-17T23:55:11.530Z,99616.59
2022-12-17T23:57:40.274Z,99608.78
